Time;durP1;ratioP1;P1;durP2;ratioP2;P2;SDS_P1;SDS_P2;PMS_P1;PMS_P2;Temp;Humidity;BMP_temperature;BMP_pressure;BME280_temperature;BME280_humidity;BME280_pressure;Samples;Min_cycle;Max_cycle;Signal;HPM_P1;HPM_P2
2022/08/02 00:01:25;;;;;;;7.15;3.40;;;14.10;80.30;;;;;;5109586;28;20099;-74
2022/08/02 00:03:50;;;;;;;7.60;3.95;;;14.10;80.10;;;;;;5076069;28;20085;-75
2022/08/02 00:06:16;;;;;;;8.95;4.15;;;14.10;80.00;;;;;;5109511;28;20043;-75
2022/08/02 00:08:42;;;;;;;7.60;3.50;;;14.10;79.60;;;;;;5109498;28;20058;-75
2022/08/02 00:11:07;;;;;;;7.78;3.97;;;14.00;80.10;;;;;;5109406;28;20093;-76
2022/08/02 00:13:33;;;;;;;6.10;3.70;;;14.00;80.30;;;;;;5109404;28;20044;-75
2022/08/02 00:15:59;;;;;;;12.75;5.07;;;14.00;80.60;;;;;;5109297;28;20039;-73
2022/08/02 00:18:24;;;;;;;9.48;4.28;;;14.00;80.00;;;;;;5109582;28;20052;-78
2022/08/02 00:20:50;;;;;;;10.60;4.15;;;14.00;80.00;;;;;;5109548;28;20477;-76
2022/08/02 00:23:16;;;;;;;6.40;3.97;;;13.90;80.00;;;;;;5109370;28;20042;-74
2022/08/02 00:25:41;;;;;;;6.20;3.80;;;13.80;80.40;;;;;;5109063;28;20032;-79
2022/08/02 00:28:12;;;;;;;8.48;4.47;;;13.80;80.40;;;;;;5109250;28;20040;-76
2022/08/02 00:30:38;;;;;;;9.73;3.95;;;13.70;80.30;;;;;;5109191;28;20047;-76
2022/08/02 00:33:04;;;;;;;7.57;4.20;;;13.70;80.80;;;;;;5108955;28;20117;-75
2022/08/02 00:35:34;;;;;;;8.65;3.97;;;13.50;81.30;;;;;;5093320;28;20507;-76
2022/08/02 00:38:00;;;;;;;8.43;4.50;;;13.50;80.90;;;;;;5075216;28;20074;-78
2022/08/02 00:40:25;;;;;;;8.27;4.50;;;13.50;81.70;;;;;;5058731;28;20072;-76
2022/08/02 00:43:06;;;;;;;12.18;5.03;;;13.40;82.00;;;;;;5108949;28;20506;-78
2022/08/02 00:45:33;;;;;;;8.48;4.60;;;13.30;81.60;;;;;;5109027;28;20365;-76
2022/08/02 00:47:59;;;;;;;10.60;4.93;;;13.30;82.20;;;;;;5109233;28;20058;-77
2022/08/02 00:50:26;;;;;;;10.98;4.28;;;13.30;81.80;;;;;;5108833;28;20502;-77
2022/08/02 00:52:51;;;;;;;8.30;4.72;;;13.30;81.80;;;;;;5109120;28;20433;-75
2022/08/02 00:55:17;;;;;;;10.32;4.30;;;13.20;82.40;;;;;;5108788;28;20043;-75
2022/08/02 00:57:43;;;;;;;8.13;5.20;;;13.20;82.50;;;;;;5075286;28;20193;-75
2022/08/02 01:00:09;;;;;;;11.82;4.70;;;13.20;82.20;;;;;;5108717;28;20040;-78
2022/08/02 01:02:35;;;;;;;7.97;4.55;;;13.20;82.50;;;;;;5108735;28;20504;-74
2022/08/02 01:05:00;;;;;;;10.18;4.65;;;13.10;82.90;;;;;;5108973;28;20036;-74
2022/08/02 01:07:26;;;;;;;11.23;5.10;;;13.10;82.90;;;;;;5074880;28;20423;-74
2022/08/02 01:09:52;;;;;;;10.05;5.05;;;13.10;82.40;;;;;;5075167;28;20093;-73
2022/08/02 01:12:18;;;;;;;7.50;4.00;;;13.10;82.00;;;;;;5058255;28;20036;-77
2022/08/02 01:14:48;;;;;;;11.60;5.05;;;13.10;82.60;;;;;;5074792;28;20113;-73
2022/08/02 01:17:51;;;;;;;8.52;4.25;;;13.20;81.90;;;;;;5108648;28;20044;-78
2022/08/02 01:20:43;;;;;;;8.52;3.72;;;13.10;82.60;;;;;;5108443;28;20463;-78
2022/08/02 01:23:17;;;;;;;8.80;5.00;;;13.10;82.60;;;;;;5075028;28;20043;-74
2022/08/02 01:26:20;;;;;;;10.80;4.85;;;13.10;82.60;;;;;;5108462;28;20051;-76
2022/08/02 01:29:01;;;;;;;8.18;4.57;;;13.10;82.30;;;;;;5108506;28;20044;-74
2022/08/02 01:31:45;;;;;;;10.85;5.10;;;13.10;82.70;;;;;;5111421;28;20059;-78
2022/08/02 01:34:19;;;;;;;7.82;5.00;;;13.10;82.80;;;;;;5112153;28;20372;-78
2022/08/02 01:36:57;;;;;;;12.32;5.30;;;13.00;83.30;;;;;;5111747;28;20054;-75
2022/08/02 01:39:27;;;;;;;9.23;4.43;;;13.00;82.70;;;;;;5094962;28;20491;-73
2022/08/02 01:41:55;;;;;;;6.13;4.28;;;13.00;82.90;;;;;;5081859;28;20047;-77
2022/08/02 01:44:23;;;;;;;11.27;5.10;;;13.00;83.10;;;;;;5115690;28;20036;-76
2022/08/02 01:46:50;;;;;;;8.73;4.93;;;13.00;82.90;;;;;;5098675;28;20039;-77
2022/08/02 01:49:19;;;;;;;7.47;4.65;;;13.00;82.90;;;;;;5115602;28;20135;-74
2022/08/02 01:54:35;;;;;;;12.30;6.05;;;13.00;82.90;;;;;;5115518;28;20111;-75
2022/08/02 01:57:05;;;;;;;8.15;5.03;;;12.90;83.60;;;;;;5115749;28;20437;-75
2022/08/02 01:59:32;;;;;;;10.48;5.38;;;12.90;83.20;;;;;;5115379;28;20035;-75
2022/08/02 02:02:00;;;;;;;12.07;5.90;;;12.90;83.00;;;;;;5081390;28;20050;-75
2022/08/02 02:04:27;;;;;;;9.00;5.40;;;12.80;83.60;;;;;;5081490;28;20042;-75
2022/08/02 02:06:56;;;;;;;10.90;5.05;;;12.80;83.30;;;;;;5098462;28;20392;-74
2022/08/02 02:09:26;;;;;;;12.45;5.20;;;12.80;83.20;;;;;;5098331;28;20039;-74
2022/08/02 02:11:53;;;;;;;9.73;4.45;;;12.80;83.70;;;;;;5081290;28;20046;-77
2022/08/02 02:14:20;;;;;;;9.80;4.63;;;12.70;83.50;;;;;;5115423;28;20404;-74
2022/08/02 02:16:48;;;;;;;7.88;4.93;;;12.80;83.30;;;;;;5098067;28;20043;-74
2022/08/02 02:19:17;;;;;;;9.95;5.10;;;12.70;84.00;;;;;;5115105;28;20047;-74
2022/08/02 02:21:43;;;;;;;9.45;5.78;;;12.70;84.20;;;;;;5114908;28;20047;-74
2022/08/02 02:24:09;;;;;;;9.02;5.07;;;12.60;84.30;;;;;;5115055;28;20108;-75
2022/08/02 02:26:37;;;;;;;8.13;4.00;;;12.60;84.00;;;;;;5097860;28;20041;-76
2022/08/02 02:29:04;;;;;;;12.52;4.85;;;12.60;84.10;;;;;;5115185;28;20447;-77
2022/08/02 02:31:38;;;;;;;10.77;5.20;;;12.60;84.40;;;;;;5081014;28;20836;-76
2022/08/02 02:34:06;;;;;;;;;;;12.60;84.20;;;;;;5098246;28;20039;-74
2022/08/02 02:36:34;;;;;;;9.07;4.38;;;12.60;85.00;;;;;;5097754;28;19916;-80
2022/08/02 02:39:04;;;;;;;7.82;4.38;;;12.50;84.40;;;;;;5115066;28;20460;-77
2022/08/02 02:41:30;;;;;;;11.32;5.10;;;12.60;84.70;;;;;;5114781;28;20079;-76
2022/08/02 02:44:00;;;;;;;7.85;4.75;;;12.60;84.50;;;;;;5114634;28;20079;-75
2022/08/02 02:46:27;;;;;;;9.20;4.85;;;12.60;84.70;;;;;;5114894;28;20100;-75
2022/08/02 02:48:53;;;;;;;9.50;4.50;;;12.60;85.00;;;;;;5116555;28;20050;-75
2022/08/02 02:51:21;;;;;;;10.10;4.75;;;12.60;84.70;;;;;;5100739;28;20086;-74
2022/08/02 02:53:49;;;;;;;8.07;4.50;;;12.60;84.50;;;;;;5086066;28;20051;-76
2022/08/02 02:56:16;;;;;;;14.85;5.53;;;12.70;84.20;;;;;;5114339;28;20543;-74
2022/08/02 02:58:43;;;;;;;12.90;5.22;;;12.70;84.70;;;;;;5114315;28;20047;-76
2022/08/02 03:01:29;;;;;;;8.63;4.72;;;12.80;84.40;;;;;;5097177;28;20043;-74
2022/08/02 03:03:56;;;;;;;8.90;5.05;;;12.80;84.60;;;;;;5114509;28;20047;-73
2022/08/02 03:06:22;;;;;;;10.00;4.88;;;12.90;85.00;;;;;;5114083;28;20046;-76
2022/08/02 03:08:48;;;;;;;14.95;5.30;;;12.90;84.60;;;;;;5114423;28;20044;-75
2022/08/02 03:11:14;;;;;;;10.98;5.70;;;12.90;84.70;;;;;;5097340;28;20074;-73
2022/08/02 03:13:40;;;;;;;7.70;4.20;;;12.90;85.30;;;;;;5063726;28;20099;-75
2022/08/02 03:16:06;;;;;;;9.00;4.97;;;12.80;85.30;;;;;;5114079;28;20495;-76
2022/08/02 03:18:37;;;;;;;8.75;4.40;;;12.80;84.90;;;;;;5113984;28;20046;-76
2022/08/02 03:21:05;;;;;;;8.27;4.78;;;12.90;84.50;;;;;;5114009;28;20049;-77
2022/08/02 03:23:32;;;;;;;7.90;4.60;;;12.90;84.20;;;;;;5114124;28;20369;-75
2022/08/02 03:25:57;;;;;;;10.20;4.90;;;12.90;84.50;;;;;;5113772;28;20028;-74
2022/08/02 03:28:23;;;;;;;7.68;4.45;;;12.90;84.90;;;;;;5080225;28;20088;-74
2022/08/02 03:30:49;;;;;;;10.90;4.90;;;12.80;85.50;;;;;;5079751;28;20042;-75
2022/08/02 03:33:15;;;;;;;11.00;4.78;;;12.90;85.40;;;;;;5113445;28;20056;-74
2022/08/02 03:35:42;;;;;;;8.90;5.40;;;12.90;84.90;;;;;;5079758;28;20089;-75
2022/08/02 03:38:10;;;;;;;11.60;4.65;;;12.90;85.20;;;;;;5113556;28;20039;-73
2022/08/02 03:40:36;;;;;;;5.55;4.13;;;12.90;85.20;;;;;;5079888;28;20094;-76
2022/08/02 03:43:02;;;;;;;8.00;4.90;;;13.00;84.50;;;;;;5113680;28;20518;-78
2022/08/02 03:45:29;;;;;;;13.52;4.75;;;13.00;85.30;;;;;;5079756;28;20389;-75
2022/08/02 03:47:55;;;;;;;9.90;4.75;;;12.90;85.80;;;;;;5113319;28;20069;-75
2022/08/02 03:50:21;;;;;;;9.90;4.70;;;12.90;85.00;;;;;;5113141;28;20040;-76
2022/08/02 03:52:48;;;;;;;15.50;4.72;;;13.00;84.80;;;;;;5112931;28;20047;-76
2022/08/02 03:55:14;;;;;;;8.40;4.80;;;13.00;85.50;;;;;;5095999;28;20031;-76
2022/08/02 03:57:42;;;;;;;11.68;5.00;;;13.00;85.00;;;;;;5113076;28;20036;-78
2022/08/02 04:00:12;;;;;;;8.68;4.95;;;12.90;85.50;;;;;;5079179;28;20120;-74
2022/08/02 04:02:38;;;;;;;10.27;5.15;;;13.00;85.10;;;;;;5112675;28;20480;-72
2022/08/02 04:05:04;;;;;;;11.23;4.18;;;13.00;85.50;;;;;;5079373;28;20109;-73
2022/08/02 04:07:30;;;;;;;7.82;4.30;;;13.00;85.30;;;;;;5112947;28;20118;-77
2022/08/02 04:09:56;;;;;;;7.47;5.18;;;13.00;85.20;;;;;;5112901;28;20123;-74
2022/08/02 04:12:21;;;;;;;8.80;4.65;;;13.00;85.50;;;;;;5112926;28;20050;-74
2022/08/02 04:14:47;;;;;;;9.20;5.20;;;13.00;85.40;;;;;;5062349;28;20040;-74
2022/08/02 04:17:16;;;;;;;6.50;4.10;;;13.00;85.30;;;;;;5112721;28;20035;-74
2022/08/02 04:19:49;;;;;;;10.70;5.45;;;13.00;85.90;;;;;;5078838;28;20078;-76
2022/08/02 04:22:46;;;;;;;8.68;4.00;;;13.00;85.50;;;;;;5095645;28;20131;-74
2022/08/02 04:25:12;;;;;;;11.35;4.65;;;13.00;85.30;;;;;;5095737;28;20035;-76
2022/08/02 04:27:40;;;;;;;8.38;4.82;;;13.00;86.20;;;;;;5112584;28;20047;-75
2022/08/02 04:30:07;;;;;;;6.63;4.32;;;13.00;85.40;;;;;;5112936;28;20360;-72
2022/08/02 04:32:34;;;;;;;15.10;5.90;;;13.10;85.70;;;;;;5112498;28;20172;-76
2022/08/02 04:35:00;;;;;;;6.78;5.13;;;13.10;86.50;;;;;;5112546;28;20051;-72
2022/08/02 04:37:26;;;;;;;11.18;5.25;;;13.10;86.50;;;;;;5078669;28;20132;-75
2022/08/02 04:39:52;;;;;;;10.73;5.45;;;13.10;86.20;;;;;;5112463;28;20498;-77
2022/08/02 04:42:22;;;;;;;12.10;5.32;;;13.10;87.30;;;;;;5112221;28;20043;-74
2022/08/02 04:44:49;;;;;;;10.63;5.35;;;13.10;86.60;;;;;;5095395;28;20040;-74
2022/08/02 04:47:15;;;;;;;14.02;6.15;;;13.20;86.80;;;;;;5095376;28;20088;-75
2022/08/02 04:49:41;;;;;;;10.88;4.97;;;13.20;87.20;;;;;;5095508;28;20043;-75
2022/08/02 04:52:07;;;;;;;7.25;4.45;;;13.30;86.90;;;;;;5112249;28;20449;-75
2022/08/02 04:54:32;;;;;;;9.20;4.95;;;13.30;86.70;;;;;;5095255;28;20141;-76
2022/08/02 04:56:58;;;;;;;9.32;5.63;;;13.40;86.00;;;;;;5112172;28;20067;-75
2022/08/02 04:59:24;;;;;;;8.65;4.70;;;13.50;86.20;;;;;;5112141;28;20123;-76
2022/08/02 05:01:50;;;;;;;9.18;4.40;;;13.50;86.00;;;;;;5112048;28;20126;-76
2022/08/02 05:04:15;;;;;;;9.23;4.80;;;13.50;85.80;;;;;;5112392;28;20032;-74
2022/08/02 05:06:41;;;;;;;8.00;4.18;;;13.60;85.80;;;;;;5078148;28;20075;-75
2022/08/02 05:09:07;;;;;;;7.88;4.47;;;13.60;86.00;;;;;;5112301;28;20075;-76
2022/08/02 05:11:32;;;;;;;7.45;3.97;;;13.70;85.30;;;;;;5112543;28;20055;-73
2022/08/02 05:13:58;;;;;;;9.73;4.03;;;13.70;85.60;;;;;;5112043;28;20406;-75
2022/08/02 05:16:25;;;;;;;11.43;5.03;;;13.70;85.30;;;;;;5115443;28;20043;-76
2022/08/02 05:18:51;;;;;;;8.77;4.88;;;13.80;84.90;;;;;;5116321;28;20044;-74
2022/08/02 05:21:16;;;;;;;9.95;4.88;;;13.80;85.50;;;;;;5082214;28;20092;-75
2022/08/02 05:23:42;;;;;;;9.57;4.35;;;13.80;85.40;;;;;;5116471;28;20035;-78
2022/08/02 05:26:08;;;;;;;8.05;4.13;;;13.90;85.00;;;;;;5116316;28;20050;-77
2022/08/02 05:28:34;;;;;;;8.35;4.22;;;14.00;85.70;;;;;;5082412;28;20476;-77
2022/08/02 05:30:59;;;;;;;6.93;4.28;;;14.00;85.20;;;;;;5116001;28;20044;-74
2022/08/02 05:33:25;;;;;;;12.95;5.07;;;14.20;84.90;;;;;;5035319;28;1139565;-75
2022/08/02 05:35:51;;;;;;;8.65;3.95;;;14.30;84.90;;;;;;5095244;28;20055;-74
2022/08/02 05:38:16;;;;;;;7.90;3.80;;;14.50;84.30;;;;;;5082069;28;20051;-78
2022/08/02 05:40:42;;;;;;;9.75;4.18;;;14.60;84.50;;;;;;5115707;28;20058;-73
2022/08/02 05:43:12;;;;;;;9.77;4.13;;;14.80;84.30;;;;;;5115759;28;20130;-75
2022/08/02 05:45:38;;;;;;;11.52;3.67;;;15.00;84.10;;;;;;5098730;28;20043;-78
2022/08/02 05:48:05;;;;;;;7.63;4.20;;;15.20;83.80;;;;;;5098741;28;20081;-75
2022/08/02 05:50:32;;;;;;;11.00;4.93;;;15.30;83.40;;;;;;5115905;28;20093;-76
2022/08/02 05:53:36;;;;;;;9.38;4.22;;;15.40;82.60;;;;;;5098830;28;20043;-76
2022/08/02 05:56:23;;;;;;;7.78;3.85;;;15.60;82.70;;;;;;5047385;28;20043;-79
2022/08/02 05:59:01;;;;;;;6.30;3.85;;;15.60;81.90;;;;;;5098535;28;20045;-76
2022/08/02 06:01:47;;;;;;;10.80;4.22;;;15.70;81.90;;;;;;5115420;28;20036;-76
2022/08/02 06:04:25;;;;;;;8.80;3.80;;;15.80;81.60;;;;;;5114989;28;20058;-75
2022/08/02 06:06:55;;;;;;;9.48;4.47;;;15.90;81.60;;;;;;5081588;28;20031;-75
2022/08/02 06:09:23;;;;;;;7.57;3.63;;;16.00;81.60;;;;;;5081840;28;20036;-74
2022/08/02 06:11:51;;;;;;;8.98;4.07;;;16.00;81.50;;;;;;5115122;28;20126;-75
2022/08/02 06:14:17;;;;;;;6.30;3.78;;;16.00;81.70;;;;;;5115197;28;20048;-77
2022/08/02 06:16:44;;;;;;;9.20;3.38;;;16.10;81.40;;;;;;5098617;28;20449;-76
2022/08/02 06:19:13;;;;;;;6.47;3.30;;;16.10;81.10;;;;;;5081578;28;20381;-76
2022/08/02 06:21:41;;;;;;;11.27;4.18;;;16.20;81.10;;;;;;5098143;28;20386;-74
2022/08/02 06:24:09;;;;;;;8.43;3.33;;;16.20;80.80;;;;;;5098033;28;20131;-73
2022/08/02 06:26:35;;;;;;;8.82;3.15;;;16.20;80.80;;;;;;5080561;28;20487;-75
2022/08/02 06:29:01;;;;;;;8.20;3.67;;;16.30;80.90;;;;;;5115281;28;20429;-74
2022/08/02 06:31:28;;;;;;;7.57;4.00;;;16.30;81.00;;;;;;5115254;28;20051;-74
2022/08/02 06:33:54;;;;;;;6.57;3.40;;;16.40;80.80;;;;;;5097675;28;20127;-73
2022/08/02 06:36:57;;;;;;;8.93;4.05;;;16.50;80.90;;;;;;5114621;28;20066;-74
2022/08/02 06:39:45;;;;;;;8.18;3.72;;;16.60;80.40;;;;;;5115002;28;20104;-77
2022/08/02 06:42:21;;;;;;;7.63;3.47;;;16.70;79.90;;;;;;5080859;28;20036;-76
2022/08/02 06:44:47;;;;;;;5.57;2.83;;;16.90;79.60;;;;;;5097810;28;20510;-76
2022/08/02 06:47:13;;;;;;;8.30;3.40;;;17.00;79.00;;;;;;5080613;28;20046;-75
2022/08/02 06:49:39;;;;;;;9.60;3.28;;;17.00;78.50;;;;;;5114480;28;20035;-79
2022/08/02 06:52:05;;;;;;;7.30;2.88;;;17.10;77.70;;;;;;5114716;28;20087;-74
2022/08/02 06:54:31;;;;;;;6.53;3.42;;;17.20;77.40;;;;;;5114444;28;20122;-76
2022/08/02 06:56:56;;;;;;;6.13;3.20;;;17.20;77.20;;;;;;5114275;28;20050;-77
2022/08/02 06:59:22;;;;;;;8.60;3.08;;;17.20;77.10;;;;;;5114355;28;20050;-75
2022/08/02 07:01:48;;;;;;;5.03;2.92;;;17.30;77.00;;;;;;5114149;28;20043;-77
2022/08/02 07:04:13;;;;;;;6.38;2.95;;;17.30;77.10;;;;;;5114223;28;20039;-76
2022/08/02 07:06:39;;;;;;;6.43;3.10;;;17.40;77.00;;;;;;5080449;28;20040;-74
2022/08/02 07:09:05;;;;;;;7.93;3.20;;;17.40;76.80;;;;;;5114400;28;20043;-78
2022/08/02 07:11:31;;;;;;;7.13;3.15;;;17.60;76.50;;;;;;5114058;28;20044;-74
2022/08/02 07:13:57;;;;;;;6.93;2.95;;;17.70;76.00;;;;;;5114053;28;20043;-75
2022/08/02 07:16:22;;;;;;;5.88;2.75;;;17.90;75.60;;;;;;5080129;28;20039;-74
2022/08/02 07:18:48;;;;;;;4.60;2.15;;;18.00;75.00;;;;;;5113903;28;20040;-76
2022/08/02 07:21:13;;;;;;;6.00;3.05;;;18.10;74.00;;;;;;5080139;28;20035;-76
2022/08/02 07:23:39;;;;;;;5.82;2.80;;;18.20;74.20;;;;;;5114137;28;20035;-74
2022/08/02 07:26:05;;;;;;;9.80;3.17;;;18.40;74.30;;;;;;5079973;28;20476;-75
2022/08/02 07:28:30;;;;;;;6.78;2.60;;;18.50;74.30;;;;;;5079930;28;20067;-76
2022/08/02 07:30:56;;;;;;;7.88;2.83;;;18.60;72.80;;;;;;5113647;28;20047;-76
2022/08/02 07:33:22;;;;;;;6.10;2.55;;;18.70;73.00;;;;;;5113625;28;20058;-74
2022/08/02 07:35:47;;;;;;;5.88;2.65;;;18.90;71.60;;;;;;5079543;28;20108;-76
2022/08/02 07:38:13;;;;;;;6.00;3.25;;;19.00;71.70;;;;;;5112831;28;20055;-74
2022/08/02 07:40:39;;;;;;;6.97;2.13;;;19.10;70.40;;;;;;5113390;28;20043;-74
2022/08/02 07:43:05;;;;;;;5.90;2.80;;;19.20;70.30;;;;;;5079614;28;20100;-74
2022/08/02 07:45:32;;;;;;;4.20;2.40;;;19.40;69.20;;;;;;5079491;28;20031;-77
2022/08/02 07:47:58;;;;;;;5.40;1.98;;;19.40;68.60;;;;;;5096474;28;20122;-76
2022/08/02 07:50:23;;;;;;;3.58;1.77;;;19.50;68.80;;;;;;5079569;28;20502;-75
2022/08/02 07:52:49;;;;;;;6.53;2.40;;;19.60;68.80;;;;;;5079783;28;20211;-75
2022/08/02 07:55:17;;;;;;;4.90;2.30;;;19.70;67.90;;;;;;5113456;28;20479;-74
2022/08/02 07:57:43;;;;;;;7.80;2.47;;;19.80;67.80;;;;;;5113506;28;20043;-74
2022/08/02 08:00:10;;;;;;;5.22;2.40;;;19.80;66.90;;;;;;5096545;28;20040;-74
2022/08/02 08:02:36;;;;;;;3.20;2.05;;;19.80;66.60;;;;;;5096119;28;20032;-79
2022/08/02 08:05:03;;;;;;;3.92;2.28;;;19.80;67.20;;;;;;5079261;28;20047;-76
2022/08/02 08:07:28;;;;;;;5.38;2.97;;;19.90;67.30;;;;;;5079043;28;20071;-76
2022/08/02 08:09:54;;;;;;;4.75;2.20;;;20.00;67.50;;;;;;5112963;28;20082;-74
2022/08/02 08:12:20;;;;;;;7.80;2.50;;;20.10;67.80;;;;;;5113228;28;20031;-74
2022/08/02 08:14:46;;;;;;;4.90;2.40;;;20.20;67.50;;;;;;5078867;28;20548;-78
2022/08/02 08:17:11;;;;;;;5.38;2.60;;;20.30;67.60;;;;;;5078965;28;20065;-76
2022/08/02 08:19:37;;;;;;;4.90;2.88;;;20.50;67.50;;;;;;5112778;28;20071;-75
2022/08/02 08:22:03;;;;;;;6.93;3.00;;;20.60;67.30;;;;;;5112673;28;20031;-75
2022/08/02 08:24:29;;;;;;;6.55;3.30;;;20.70;67.40;;;;;;5112726;28;20047;-76
2022/08/02 08:26:55;;;;;;;4.90;3.10;;;20.90;67.60;;;;;;5112628;28;20096;-77
2022/08/02 08:29:22;;;;;;;10.18;2.97;;;21.00;67.20;;;;;;5095608;28;20043;-75
2022/08/02 08:31:48;;;;;;;6.80;2.92;;;21.10;66.90;;;;;;5095940;28;20063;-75
2022/08/02 08:34:14;;;;;;;7.57;4.05;;;21.20;66.60;;;;;;5095439;28;20039;-75
2022/08/02 08:36:40;;;;;;;6.28;3.30;;;21.20;65.40;;;;;;5078635;28;20058;-77
2022/08/02 08:39:06;;;;;;;5.15;3.28;;;21.20;66.10;;;;;;5078906;28;20043;-76
2022/08/02 08:41:32;;;;;;;6.95;3.00;;;21.40;66.20;;;;;;5078595;28;20498;-76
2022/08/02 08:43:58;;;;;;;5.03;3.00;;;21.50;65.80;;;;;;5112354;28;20051;-76
2022/08/02 08:46:33;;;;;;;6.05;3.22;;;21.50;66.00;;;;;;5112292;28;20039;-77
2022/08/02 08:49:14;;;;;;;6.80;3.47;;;21.50;66.00;;;;;;5112300;28;20081;-77
2022/08/02 08:51:42;;;;;;;5.80;3.22;;;21.60;66.10;;;;;;5112323;28;20039;-77
2022/08/02 08:54:12;;;;;;;7.90;3.30;;;21.70;66.00;;;;;;5095263;28;20039;-75
2022/08/02 08:56:39;;;;;;;9.55;3.95;;;21.80;65.30;;;;;;5112067;28;20048;-75
2022/08/02 08:59:05;;;;;;;6.15;3.45;;;21.90;65.40;;;;;;5078529;28;20124;-76
2022/08/02 09:01:31;;;;;;;7.05;3.42;;;22.00;65.40;;;;;;5078369;28;20042;-77
2022/08/02 09:03:57;;;;;;;6.22;3.47;;;22.00;64.70;;;;;;5112173;28;20043;-77
2022/08/02 09:06:24;;;;;;;4.70;2.95;;;22.20;64.60;;;;;;5095137;28;20120;-77
2022/08/02 09:08:49;;;;;;;5.28;3.55;;;22.20;65.00;;;;;;5112142;28;20132;-76
2022/08/02 09:11:17;;;;;;;9.32;3.80;;;22.20;64.60;;;;;;5112036;28;20093;-77
2022/08/02 09:14:03;;;;;;;7.00;3.58;;;22.20;64.40;;;;;;5095087;28;20043;-76
2022/08/02 09:16:41;;;;;;;7.50;3.55;;;22.40;65.00;;;;;;5094678;28;20048;-76
2022/08/02 09:19:36;;;;;;;5.50;3.58;;;22.50;65.00;;;;;;5095347;28;20039;-76
2022/08/02 09:22:06;;;;;;;6.32;3.83;;;22.60;64.90;;;;;;5073424;28;20052;-74
2022/08/02 09:24:42;;;;;;;8.48;4.35;;;22.80;64.80;;;;;;5112311;28;20104;-76
2022/08/02 09:27:14;;;;;;;6.63;4.45;;;23.00;64.40;;;;;;5111924;28;20096;-77
2022/08/02 09:29:44;;;;;;;7.55;4.50;;;23.20;63.80;;;;;;5078134;28;20052;-77
2022/08/02 09:32:09;;;;;;;9.95;4.60;;;23.30;63.50;;;;;;5111858;28;20055;-76
2022/08/02 09:34:52;;;;;;;8.00;4.85;;;23.40;63.10;;;;;;5108343;28;20424;-78
2022/08/02 09:37:25;;;;;;;9.95;5.43;;;23.40;62.30;;;;;;5091504;28;20131;-74
2022/08/02 09:39:51;;;;;;;7.95;6.53;;;23.40;63.20;;;;;;5108711;28;20145;-76
2022/08/02 09:42:17;;;;;;;8.60;6.25;;;23.40;63.20;;;;;;5108254;28;20122;-78
2022/08/02 09:44:58;;;;;;;11.80;6.70;;;23.40;63.20;;;;;;5108282;28;20051;-76
2022/08/02 09:47:25;;;;;;;11.20;7.60;;;23.40;63.50;;;;;;5108458;28;20040;-77
2022/08/02 09:49:54;;;;;;;11.18;6.72;;;23.40;64.00;;;;;;5074846;28;20430;-77
2022/08/02 09:52:28;;;;;;;11.77;7.40;;;23.40;64.80;;;;;;5108198;28;20047;-78
2022/08/02 09:54:54;;;;;;;;;;;23.50;65.10;;;;;;5108586;28;20047;-76
2022/08/02 09:57:28;;;;;;;8.98;6.80;;;23.50;65.50;;;;;;5091470;28;19916;-76
2022/08/02 09:59:57;;;;;;;13.73;7.07;;;23.60;65.60;;;;;;5108131;28;20109;-77
2022/08/02 10:02:23;;;;;;;11.00;7.38;;;23.40;64.70;;;;;;5077332;28;20040;-76
2022/08/02 10:04:49;;;;;;;11.45;8.30;;;23.50;65.60;;;;;;5112231;28;20510;-76
2022/08/02 10:07:16;;;;;;;9.95;7.15;;;23.50;66.00;;;;;;5111988;28;20492;-77
2022/08/02 10:09:44;;;;;;;7.75;6.47;;;23.70;66.20;;;;;;5112017;28;20043;-75
2022/08/02 10:12:11;;;;;;;8.63;7.25;;;23.90;65.90;;;;;;5077979;28;20051;-74
2022/08/02 10:14:38;;;;;;;11.02;9.40;;;24.00;66.50;;;;;;5112118;28;20058;-76
2022/08/02 10:17:05;;;;;;;13.40;10.25;;;24.30;66.50;;;;;;5112084;28;20369;-75
2022/08/02 10:19:31;;;;;;;16.25;12.82;;;24.40;66.20;;;;;;5094793;28;20475;-76
2022/08/02 10:22:05;;;;;;;15.77;12.15;;;24.40;66.00;;;;;;5094560;28;20043;-75
2022/08/02 10:24:35;;;;;;;16.92;12.10;;;24.20;66.20;;;;;;5094684;28;20400;-77
2022/08/02 10:27:02;;;;;;;15.93;12.20;;;24.20;66.40;;;;;;5094786;28;20395;-75
2022/08/02 10:29:36;;;;;;;13.60;12.15;;;24.10;67.00;;;;;;5094571;28;20043;-76
2022/08/02 10:32:05;;;;;;;15.00;13.27;;;24.00;67.30;;;;;;5094538;28;20040;-79
2022/08/02 10:35:00;;;;;;;19.20;15.35;;;24.00;68.20;;;;;;5091159;28;20468;-76
2022/08/02 10:37:35;;;;;;;17.83;12.15;;;24.10;67.90;;;;;;5090659;28;20056;-75
2022/08/02 10:40:00;;;;;;;13.73;11.70;;;24.10;67.70;;;;;;5074090;28;20127;-76
2022/08/02 10:42:42;;;;;;;15.68;11.90;;;24.10;67.70;;;;;;5090885;28;20127;-76
2022/08/02 10:45:14;;;;;;;15.77;12.73;;;23.90;68.60;;;;;;5073979;28;20496;-74
2022/08/02 10:48:21;;;;;;;16.23;12.70;;;24.00;68.90;;;;;;5074041;28;20503;-77
2022/08/02 10:50:47;;;;;;;18.45;14.02;;;24.10;68.00;;;;;;5088686;28;20110;-77
2022/08/02 10:53:20;;;;;;;18.08;14.82;;;24.00;68.20;;;;;;5074055;28;20036;-77
2022/08/02 10:55:46;;;;;;;18.20;13.18;;;23.90;68.70;;;;;;5090946;28;20083;-75
2022/08/02 10:58:17;;;;;;;16.20;12.55;;;24.00;69.00;;;;;;5073838;28;20459;-78
2022/08/02 11:00:42;;;;;;;16.67;13.13;;;24.00;69.40;;;;;;5073773;28;20059;-78
2022/08/02 11:03:28;;;;;;;17.25;14.68;;;23.90;69.40;;;;;;5057332;28;20052;-78
2022/08/02 11:06:04;;;;;;;18.15;14.35;;;23.70;70.00;;;;;;5073395;28;20044;-79
2022/08/02 11:08:30;;;;;;;17.33;14.20;;;23.60;70.00;;;;;;5073658;28;20082;-76
2022/08/02 11:11:08;;;;;;;16.17;13.90;;;23.50;70.70;;;;;;5056901;28;20131;-75
2022/08/02 11:14:00;;;;;;;15.57;13.88;;;23.50;70.60;;;;;;5072585;28;20037;-74
2022/08/02 11:16:54;;;;;;;15.32;12.10;;;23.60;71.00;;;;;;5085386;28;20050;-77
2022/08/02 11:19:21;;;;;;;15.00;13.10;;;23.70;70.90;;;;;;5073371;28;20079;-76
2022/08/02 11:22:11;;;;;;;15.60;12.05;;;23.80;70.10;;;;;;5090080;28;20044;-76
2022/08/02 11:24:38;;;;;;;14.13;11.70;;;23.80;69.60;;;;;;5090136;28;20131;-77
2022/08/02 11:27:08;;;;;;;16.90;12.38;;;23.90;69.70;;;;;;5090350;28;20362;-76
2022/08/02 11:29:39;;;;;;;15.35;13.80;;;23.90;69.10;;;;;;5073167;28;20078;-76
2022/08/02 11:32:16;;;;;;;16.65;14.68;;;23.90;69.50;;;;;;5073180;28;20044;-78
2022/08/02 11:34:44;;;;;;;19.23;13.98;;;23.80;69.70;;;;;;5098525;28;20399;-76
2022/08/02 11:37:10;;;;;;;16.02;13.27;;;23.90;69.80;;;;;;5113657;28;20048;-76
2022/08/02 11:39:36;;;;;;;17.63;12.55;;;23.90;69.80;;;;;;5096570;28;20043;-77
2022/08/02 11:42:02;;;;;;;17.75;13.10;;;23.70;69.70;;;;;;5096479;28;20032;-76
2022/08/02 11:44:29;;;;;;;15.18;13.57;;;23.60;70.00;;;;;;5096576;28;20043;-77
2022/08/02 11:47:00;;;;;;;17.27;12.25;;;23.50;70.80;;;;;;5079467;28;20040;-76
2022/08/02 11:49:27;;;;;;;15.45;13.82;;;23.60;70.70;;;;;;5113422;28;20047;-77
2022/08/02 11:52:00;;;;;;;16.27;13.65;;;23.60;70.90;;;;;;5113302;28;20122;-75
2022/08/02 11:54:32;;;;;;;17.27;13.18;;;23.50;70.60;;;;;;5113847;28;20039;-76
2022/08/02 11:57:12;;;;;;;18.23;13.68;;;23.30;70.70;;;;;;5113465;28;20443;-76
2022/08/02 11:59:39;;;;;;;18.05;14.52;;;23.30;70.90;;;;;;5096224;28;20096;-77
2022/08/02 12:02:06;;;;;;;17.27;13.13;;;23.20;71.80;;;;;;5113098;28;20091;-78
2022/08/02 12:04:32;;;;;;;17.77;13.82;;;23.20;72.30;;;;;;5113662;28;20126;-78
2022/08/02 12:07:00;;;;;;;18.45;13.25;;;23.30;72.50;;;;;;5113013;28;20032;-76
2022/08/02 12:09:27;;;;;;;17.38;13.90;;;23.20;72.50;;;;;;5113006;28;20099;-74
2022/08/02 12:11:54;;;;;;;14.32;12.40;;;23.20;72.40;;;;;;5079334;28;20051;-76
2022/08/02 12:14:21;;;;;;;14.90;13.15;;;23.20;72.60;;;;;;5112950;28;20047;-76
2022/08/02 12:19:32;;;;;;;20.42;13.57;;;23.10;73.10;;;;;;5112833;28;20046;-78
2022/08/02 12:22:11;;;;;;;15.85;14.27;;;23.00;73.20;;;;;;5062142;28;20051;-78
2022/08/02 12:24:40;;;;;;;16.45;12.88;;;22.90;73.30;;;;;;5095663;28;20361;-76
2022/08/02 12:27:07;;;;;;;18.80;14.80;;;22.90;73.40;;;;;;5095718;28;20131;-76
2022/08/02 12:29:36;;;;;;;21.60;15.77;;;22.90;73.80;;;;;;5112891;28;20047;-77
2022/08/02 12:32:02;;;;;;;20.25;16.25;;;22.90;73.70;;;;;;5095852;28;20101;-77
2022/08/02 12:34:29;;;;;;;18.17;15.77;;;22.90;73.70;;;;;;5112642;28;20051;-76
2022/08/02 12:37:03;;;;;;;17.13;13.93;;;22.80;74.00;;;;;;5112491;28;20051;-78
2022/08/02 12:39:41;;;;;;;21.20;15.80;;;22.80;74.10;;;;;;5112467;28;20047;-77
2022/08/02 12:42:08;;;;;;;16.92;14.50;;;22.80;74.60;;;;;;5112444;28;20040;-77
2022/08/02 12:44:37;;;;;;;19.25;16.42;;;22.70;74.40;;;;;;5112647;28;20047;-75
2022/08/02 12:47:10;;;;;;;18.33;15.10;;;22.70;74.80;;;;;;5095376;28;20036;-74
2022/08/02 12:49:36;;;;;;;19.58;15.10;;;22.80;75.00;;;;;;5112397;28;20560;-75
2022/08/02 12:52:18;;;;;;;17.60;14.27;;;22.90;74.60;;;;;;5078527;28;20043;-74
2022/08/02 12:54:43;;;;;;;18.75;15.45;;;22.90;74.90;;;;;;5112279;28;20069;-78
2022/08/02 12:57:11;;;;;;;19.98;15.85;;;22.90;74.80;;;;;;5095469;28;20043;-76